Lockhart, California
Current Conditions -  °F | °C
As of 7:55 PM on Saturday 25 Oct 2014 (Local Time) from KVCV Reporting Station
Clear Clear  
Wind Chill: 66°   Ceiling: Unl
Heat Index: 66°   Visibility: 10mi
Dew Point: 37°   Wind: 3mph
Humidity: 35%   Direction: 190°S
Pressure: 30.06"   Gusts: NA
Location:  35.0194°N, 117.345°W
Report Text: KVCV 260255Z AUTO 19003KT 10SM CLR 19/03 A3006 RMK AO2
Loading
Personal Weather Stations






























Interactive Weather Map
Tropical Storm Tracking
New forecast layout! Learn more

10-Day Weather Forecast

Advertisements
Track Severe Weather on mobile